Time;durP1;ratioP1;P1;durP2;ratioP2;P2;SDS_P1;SDS_P2;PMS_P1;PMS_P2;Temp;Humidity;BMP_temperature;BMP_pressure;BME280_temperature;BME280_humidity;BME280_pressure;Samples;Min_cycle;Max_cycle;Signal;HPM_P1;HPM_P2
2022/06/29 00:00:24;;;;;;;3.78;0.80;;;;;;;;;;5323167;28;20358;-71
2022/06/29 00:02:56;;;;;;;2.92;0.70;;;;;;;;;;5322792;28;20012;-71
2022/06/29 00:05:27;;;;;;;3.50;0.85;;;;;;;;;;5323259;28;20024;-71
2022/06/29 00:07:58;;;;;;;2.50;0.70;;;;;;;;;;5324387;28;20015;-71
2022/06/29 00:10:29;;;;;;;2.80;0.90;;;;;;;;;;5326495;28;20026;-71
2022/06/29 00:13:00;;;;;;;6.13;0.90;;;;;;;;;;5327405;28;20030;-70
2022/06/29 00:15:32;;;;;;;3.77;0.80;;;;;;;;;;5327721;28;20276;-71
2022/06/29 00:18:03;;;;;;;4.70;1.15;;;;;;;;;;5326377;28;20277;-70
2022/06/29 00:20:34;;;;;;;3.38;0.68;;;;;;;;;;5327517;28;20410;-70
2022/06/29 00:23:06;;;;;;;5.90;0.80;;;;;;;;;;5326494;28;20062;-71
2022/06/29 00:25:37;;;;;;;3.35;0.77;;;;;;;;;;5327109;28;20283;-70
2022/06/29 00:28:08;;;;;;;2.47;1.00;;;;;;;;;;5327143;28;20015;-71
2022/06/29 00:30:39;;;;;;;3.00;0.80;;;;;;;;;;5326241;28;20293;-70
2022/06/29 00:33:11;;;;;;;6.00;1.15;;;;;;;;;;5327246;28;20827;-70
2022/06/29 00:35:42;;;;;;;4.97;1.17;;;;;;;;;;5327079;28;20047;-70
2022/06/29 00:38:13;;;;;;;4.40;1.10;;;;;;;;;;5326195;28;20268;-71
2022/06/29 00:40:44;;;;;;;3.75;1.10;;;;;;;;;;5327196;28;20338;-71
2022/06/29 00:43:15;;;;;;;3.67;1.05;;;;;;;;;;5327054;28;20016;-70
2022/06/29 00:45:47;;;;;;;4.50;1.10;;;;;;;;;;5326122;28;20020;-70
2022/06/29 00:48:18;;;;;;;3.55;0.95;;;;;;;;;;5326776;28;20747;-70
2022/06/29 00:50:50;;;;;;;3.75;1.00;;;;;;;;;;5327229;28;20297;-70
2022/06/29 00:53:23;;;;;;;2.42;0.90;;;;;;;;;;5325635;28;20024;-69
2022/06/29 00:55:55;;;;;;;3.72;1.05;;;;;;;;;;5327076;28;20023;-70
2022/06/29 00:58:27;;;;;;;2.85;0.98;;;;;;;;;;5325610;28;20019;-70
2022/06/29 01:01:01;;;;;;;4.25;1.33;;;;;;;;;;5326733;28;20096;-70
2022/06/29 01:03:32;;;;;;;4.30;1.00;;;;;;;;;;5326628;28;20370;-70
2022/06/29 01:06:04;;;;;;;6.20;1.00;;;;;;;;;;5325799;28;20015;-70
2022/06/29 01:08:35;;;;;;;4.20;1.00;;;;;;;;;;5326453;28;20349;-71
2022/06/29 01:11:06;;;;;;;3.35;1.00;;;;;;;;;;5326221;28;20028;-70
2022/06/29 01:13:41;;;;;;;3.65;0.95;;;;;;;;;;5325524;28;20102;-70
2022/06/29 01:16:12;;;;;;;3.92;1.25;;;;;;;;;;5326438;28;20277;-70
2022/06/29 01:18:43;;;;;;;3.97;1.10;;;;;;;;;;5325978;28;20097;-71
2022/06/29 01:21:18;;;;;;;4.93;1.20;;;;;;;;;;5324559;28;20288;-71
2022/06/29 01:23:49;;;;;;;4.38;1.10;;;;;;;;;;5326123;28;20107;-69
2022/06/29 01:26:20;;;;;;;4.00;1.10;;;;;;;;;;5324772;28;20560;-70
2022/06/29 01:28:51;;;;;;;4.93;1.33;;;;;;;;;;5326238;28;20011;-70
2022/06/29 01:31:22;;;;;;;6.27;1.30;;;;;;;;;;5325531;28;20764;-70
2022/06/29 01:33:54;;;;;;;4.63;1.17;;;;;;;;;;5325602;28;20624;-71
2022/06/29 01:36:25;;;;;;;6.22;1.75;;;;;;;;;;5325517;28;20344;-71
2022/06/29 01:38:56;;;;;;;6.28;1.35;;;;;;;;;;5326288;28;20050;-71
2022/06/29 01:41:27;;;;;;;3.93;1.17;;;;;;;;;;5324704;28;20272;-72
2022/06/29 01:43:58;;;;;;;2.63;1.20;;;;;;;;;;5326117;28;20779;-71
2022/06/29 01:46:30;;;;;;;5.32;1.70;;;;;;;;;;5325557;28;20020;-70
2022/06/29 01:49:01;;;;;;;5.38;1.42;;;;;;;;;;5324724;28;20020;-71
2022/06/29 01:51:32;;;;;;;4.28;1.55;;;;;;;;;;5325464;28;20096;-71
2022/06/29 01:54:04;;;;;;;4.38;1.17;;;;;;;;;;5325659;28;20420;-72
2022/06/29 01:56:35;;;;;;;6.38;1.67;;;;;;;;;;5324708;28;20103;-71
2022/06/29 01:59:06;;;;;;;4.60;1.70;;;;;;;;;;5325207;28;20008;-71
2022/06/29 02:01:37;;;;;;;5.47;1.60;;;;;;;;;;5324196;28;20280;-70
2022/06/29 02:04:08;;;;;;;7.20;1.30;;;;;;;;;;5325622;28;20023;-71
2022/06/29 02:06:39;;;;;;;3.60;1.67;;;;;;;;;;5325528;28;20257;-70
2022/06/29 02:09:11;;;;;;;7.13;1.77;;;;;;;;;;5324732;28;20752;-70
2022/06/29 02:11:42;;;;;;;5.53;1.90;;;;;;;;;;5325360;28;20281;-71
2022/06/29 02:14:14;;;;;;;6.57;1.50;;;;;;;;;;5325555;28;20019;-70
2022/06/29 02:16:45;;;;;;;5.65;2.00;;;;;;;;;;5324720;28;20050;-71
2022/06/29 02:19:16;;;;;;;4.57;1.50;;;;;;;;;;5325238;28;20039;-70
2022/06/29 02:21:47;;;;;;;4.63;1.38;;;;;;;;;;5325237;28;20398;-70
2022/06/29 02:24:18;;;;;;;4.27;1.33;;;;;;;;;;5324092;28;20019;-70
2022/06/29 02:26:50;;;;;;;3.80;1.40;;;;;;;;;;5325459;28;20268;-70
2022/06/29 02:29:21;;;;;;;3.17;1.90;;;;;;;;;;5324761;28;20272;-70
2022/06/29 02:34:46;;;;;;;4.03;2.10;;;;;;;;;;5324929;28;20246;-71
2022/06/29 02:37:17;;;;;;;6.13;2.22;;;;;;;;;;5324110;28;20020;-70
2022/06/29 02:39:48;;;;;;;4.65;1.95;;;;;;;;;;5324934;28;20458;-72
2022/06/29 02:42:19;;;;;;;9.07;2.17;;;;;;;;;;5324575;28;20701;-71
2022/06/29 02:44:51;;;;;;;4.95;2.10;;;;;;;;;;5324143;28;20277;-71
2022/06/29 02:47:22;;;;;;;4.13;2.10;;;;;;;;;;5324187;28;20382;-71
2022/06/29 02:49:53;;;;;;;6.03;2.75;;;;;;;;;;5324822;28;20678;-71
2022/06/29 02:52:24;;;;;;;4.82;2.40;;;;;;;;;;5323573;28;20624;-71
2022/06/29 02:54:55;;;;;;;4.43;2.83;;;;;;;;;;5324917;28;20378;-71
2022/06/29 02:57:27;;;;;;;4.53;2.53;;;;;;;;;;5324257;28;20047;-70
2022/06/29 02:59:58;;;;;;;6.22;2.95;;;;;;;;;;5324465;28;20265;-70
2022/06/29 03:02:29;;;;;;;6.03;2.90;;;;;;;;;;5324298;28;20112;-70
2022/06/29 03:05:00;;;;;;;8.15;2.80;;;;;;;;;;5323539;28;20269;-70
2022/06/29 03:07:31;;;;;;;5.28;2.63;;;;;;;;;;5324348;28;20478;-71
2022/06/29 03:10:03;;;;;;;4.37;2.60;;;;;;;;;;5324142;28;20023;-71
2022/06/29 03:12:34;;;;;;;7.38;3.22;;;;;;;;;;5323633;28;20269;-71
2022/06/29 03:15:06;;;;;;;3.90;2.93;;;;;;;;;;5324236;28;20086;-73
2022/06/29 03:17:37;;;;;;;6.43;3.25;;;;;;;;;;5324277;28;20348;-71
2022/06/29 03:20:08;;;;;;;9.48;2.78;;;;;;;;;;5323159;28;20044;-71
2022/06/29 03:22:40;;;;;;;3.88;2.28;;;;;;;;;;5324094;28;20020;-71
2022/06/29 03:25:11;;;;;;;6.67;2.80;;;;;;;;;;5324048;28;20035;-71
2022/06/29 03:27:43;;;;;;;6.60;2.65;;;;;;;;;;5323390;28;20816;-71
2022/06/29 03:30:14;;;;;;;4.32;2.90;;;;;;;;;;5323861;28;20020;-71
2022/06/29 03:32:45;;;;;;;5.78;3.20;;;;;;;;;;5323141;28;20424;-71
2022/06/29 03:35:16;;;;;;;5.17;2.67;;;;;;;;;;5323904;28;20081;-71
2022/06/29 03:37:50;;;;;;;7.10;3.13;;;;;;;;;;5324150;28;20281;-70
2022/06/29 03:40:21;;;;;;;10.63;3.17;;;;;;;;;;5322863;28;20069;-71
2022/06/29 03:42:53;;;;;;;7.13;3.73;;;;;;;;;;5323563;28;20012;-71
2022/06/29 03:45:24;;;;;;;7.20;3.08;;;;;;;;;;5323497;28;20771;-71
2022/06/29 03:47:55;;;;;;;4.63;3.33;;;;;;;;;;5323278;28;20039;-70
2022/06/29 03:50:26;;;;;;;5.47;2.78;;;;;;;;;;5323257;28;20032;-70
2022/06/29 03:52:57;;;;;;;5.10;2.65;;;;;;;;;;5324042;28;20462;-71
2022/06/29 03:55:29;;;;;;;5.10;2.83;;;;;;;;;;5322516;28;20819;-71
2022/06/29 03:58:00;;;;;;;7.20;3.50;;;;;;;;;;5323658;28;20467;-71
2022/06/29 04:00:31;;;;;;;6.17;3.93;;;;;;;;;;5323809;28;20026;-71
2022/06/29 04:03:02;;;;;;;4.70;3.45;;;;;;;;;;5323002;28;20274;-71
2022/06/29 04:05:33;;;;;;;7.88;2.95;;;;;;;;;;5323746;28;20072;-71
2022/06/29 04:08:04;;;;;;;4.93;2.88;;;;;;;;;;5322897;28;20043;-71
2022/06/29 04:10:36;;;;;;;9.75;3.92;;;;;;;;;;5323360;28;20434;-70
2022/06/29 04:13:07;;;;;;;7.25;3.65;;;;;;;;;;5323468;28;20072;-71
2022/06/29 04:15:38;;;;;;;4.70;3.22;;;;;;;;;;5322972;28;20474;-71
2022/06/29 04:18:09;;;;;;;5.65;3.15;;;;;;;;;;5323456;28;20051;-71
2022/06/29 04:23:30;;;;;;;8.20;3.63;;;;;;;;;;5323025;28;20249;-71
2022/06/29 04:26:01;;;;;;;5.40;3.50;;;;;;;;;;5323665;28;20359;-71
2022/06/29 04:28:33;;;;;;;4.78;3.10;;;;;;;;;;5323497;28;20266;-72
2022/06/29 04:31:04;;;;;;;8.15;3.80;;;;;;;;;;5322595;28;20039;-71
2022/06/29 04:33:35;;;;;;;6.28;3.92;;;;;;;;;;5323258;28;20058;-71
2022/06/29 04:36:06;;;;;;;5.20;3.27;;;;;;;;;;5322623;28;20024;-71
2022/06/29 04:38:37;;;;;;;4.85;3.58;;;;;;;;;;5323426;28;20774;-70
2022/06/29 04:41:09;;;;;;;12.32;4.32;;;;;;;;;;5323273;28;20023;-70
2022/06/29 04:43:40;;;;;;;6.30;3.63;;;;;;;;;;5322470;28;20068;-70
2022/06/29 04:46:20;;;;;;;8.13;3.50;;;;;;;;;;5323168;28;20092;-71
2022/06/29 04:48:55;;;;;;;4.25;3.20;;;;;;;;;;5323720;28;20733;-70
2022/06/29 04:51:27;;;;;;;7.55;3.75;;;;;;;;;;5322035;28;20151;-70
2022/06/29 04:53:59;;;;;;;7.18;3.47;;;;;;;;;;5323466;28;20157;-70
2022/06/29 04:56:32;;;;;;;4.68;3.38;;;;;;;;;;5326047;28;20102;-70
2022/06/29 04:59:03;;;;;;;7.28;3.65;;;;;;;;;;5326117;28;20106;-70
2022/06/29 05:01:34;;;;;;;5.70;3.13;;;;;;;;;;5327078;28;20168;-69
2022/06/29 05:04:06;;;;;;;7.88;4.55;;;;;;;;;;5326871;28;20273;-70
2022/06/29 05:06:37;;;;;;;4.78;3.88;;;;;;;;;;5326037;28;20353;-70
2022/06/29 05:09:08;;;;;;;5.95;3.65;;;;;;;;;;5326827;28;20027;-70
2022/06/29 05:11:39;;;;;;;5.47;3.25;;;;;;;;;;5326037;28;20032;-70
2022/06/29 05:14:11;;;;;;;5.63;3.17;;;;;;;;;;5326753;28;20027;-71
2022/06/29 05:16:42;;;;;;;7.53;3.33;;;;;;;;;;5326508;28;20285;-71
2022/06/29 05:19:13;;;;;;;5.60;3.20;;;;;;;;;;5325483;28;20442;-70
2022/06/29 05:21:44;;;;;;;7.35;3.28;;;;;;;;;;5326730;28;20478;-71
2022/06/29 05:24:15;;;;;;;7.07;3.10;;;;;;;;;;5326628;28;20016;-70
2022/06/29 05:26:46;;;;;;;4.03;2.67;;;;;;;;;;5325742;28;20270;-71
2022/06/29 05:29:18;;;;;;;5.10;2.97;;;;;;;;;;5326327;28;20261;-71
2022/06/29 05:31:49;;;;;;;8.07;6.13;;;;;;;;;;5326613;28;20266;-71
2022/06/29 05:34:21;;;;;;;9.05;6.13;;;;;;;;;;5325458;28;20043;-71
2022/06/29 05:36:52;;;;;;;6.55;2.60;;;;;;;;;;5326399;28;20273;-71
2022/06/29 05:39:23;;;;;;;8.85;2.95;;;;;;;;;;5324891;28;20016;-71
2022/06/29 05:41:54;;;;;;;5.73;2.83;;;;;;;;;;5326264;28;20741;-70
2022/06/29 05:44:25;;;;;;;4.63;2.58;;;;;;;;;;5325631;28;20771;-71
2022/06/29 05:46:56;;;;;;;6.07;2.90;;;;;;;;;;5325648;28;20035;-70
2022/06/29 05:49:28;;;;;;;5.38;2.65;;;;;;;;;;5325704;28;20038;-71
2022/06/29 05:51:59;;;;;;;7.13;2.40;;;;;;;;;;5326101;28;20330;-71
2022/06/29 05:54:30;;;;;;;7.25;2.45;;;;;;;;;;5324986;28;20257;-71
2022/06/29 05:57:01;;;;;;;8.18;2.38;;;;;;;;;;5325898;28;20022;-71
2022/06/29 05:59:33;;;;;;;8.95;2.60;;;;;;;;;;5325855;28;20027;-71
2022/06/29 06:02:04;;;;;;;4.50;2.40;;;;;;;;;;5324914;28;20016;-71
2022/06/29 06:04:36;;;;;;;4.53;2.03;;;;;;;;;;5326010;28;20102;-71
2022/06/29 06:07:08;;;;;;;5.53;2.50;;;;;;;;;;5325114;28;20015;-71
2022/06/29 06:09:39;;;;;;;5.80;2.20;;;;;;;;;;5324902;28;20077;-71
2022/06/29 06:12:11;;;;;;;8.10;2.03;;;;;;;;;;5325379;28;20273;-71
2022/06/29 06:14:42;;;;;;;8.18;2.33;;;;;;;;;;5324493;28;20031;-71
2022/06/29 06:17:14;;;;;;;7.40;1.90;;;;;;;;;;5325395;28;20378;-71
2022/06/29 06:19:45;;;;;;;4.35;1.75;;;;;;;;;;5324961;28;20039;-71
2022/06/29 06:22:16;;;;;;;9.47;2.00;;;;;;;;;;5324763;28;20423;-71
2022/06/29 06:24:47;;;;;;;8.48;1.73;;;;;;;;;;5325323;28;20749;-72
2022/06/29 06:27:19;;;;;;;4.88;1.63;;;;;;;;;;5324968;28;20058;-72
2022/06/29 06:29:50;;;;;;;6.95;1.70;;;;;;;;;;5324574;28;20526;-71
2022/06/29 06:32:21;;;;;;;3.93;1.90;;;;;;;;;;5324708;28;20020;-71
2022/06/29 06:34:52;;;;;;;5.93;1.50;;;;;;;;;;5325625;28;20249;-71
2022/06/29 06:37:23;;;;;;;6.23;2.00;;;;;;;;;;5323781;28;20019;-71
2022/06/29 06:42:44;;;;;;;5.47;1.20;;;;;;;;;;5324050;28;20535;-70
2022/06/29 06:45:15;;;;;;;4.28;1.27;;;;;;;;;;5325001;28;20098;-70
2022/06/29 06:47:46;;;;;;;4.85;0.98;;;;;;;;;;5324945;28;20024;-70
2022/06/29 06:50:18;;;;;;;8.43;1.25;;;;;;;;;;5323698;28;20337;-71
2022/06/29 06:52:49;;;;;;;6.28;1.00;;;;;;;;;;5324420;28;20019;-71
2022/06/29 06:55:20;;;;;;;4.37;0.87;;;;;;;;;;5324156;28;20496;-71
2022/06/29 06:57:51;;;;;;;7.53;0.80;;;;;;;;;;5324235;28;20383;-70
2022/06/29 07:00:22;;;;;;;2.65;0.70;;;;;;;;;;5324267;28;20273;-70
2022/06/29 07:02:54;;;;;;;6.85;0.90;;;;;;;;;;5324726;28;20019;-71
2022/06/29 07:05:25;;;;;;;3.23;0.60;;;;;;;;;;5323185;28;20019;-70
2022/06/29 07:07:56;;;;;;;4.38;0.70;;;;;;;;;;5324605;28;20266;-70
2022/06/29 07:10:27;;;;;;;6.63;0.70;;;;;;;;;;5324076;28;20035;-70
2022/06/29 07:12:59;;;;;;;2.75;0.60;;;;;;;;;;5323773;28;20265;-70
2022/06/29 07:15:30;;;;;;;3.92;0.68;;;;;;;;;;5324412;28;20032;-72
2022/06/29 07:18:02;;;;;;;5.53;0.50;;;;;;;;;;5322455;28;20046;-73
2022/06/29 07:20:33;;;;;;;2.58;0.50;;;;;;;;;;5324441;28;20028;-72
2022/06/29 07:23:04;;;;;;;6.90;1.05;;;;;;;;;;5324226;28;20038;-70
2022/06/29 07:25:35;;;;;;;3.78;0.50;;;;;;;;;;5323157;28;20019;-72
2022/06/29 07:28:07;;;;;;;3.20;0.70;;;;;;;;;;5324028;28;20458;-70
2022/06/29 07:30:38;;;;;;;2.22;0.60;;;;;;;;;;5323897;28;20338;-70
2022/06/29 07:33:09;;;;;;;4.97;0.80;;;;;;;;;;5323421;28;20498;-69
2022/06/29 07:35:41;;;;;;;4.82;0.50;;;;;;;;;;5323989;28;20023;-70
2022/06/29 07:38:12;;;;;;;5.23;0.60;;;;;;;;;;5324078;28;20117;-69
2022/06/29 07:40:43;;;;;;;2.58;0.50;;;;;;;;;;5322991;28;20314;-69
2022/06/29 07:43:14;;;;;;;3.27;0.60;;;;;;;;;;5323761;28;20470;-69
2022/06/29 07:45:46;;;;;;;3.67;0.50;;;;;;;;;;5324222;28;20356;-70
2022/06/29 07:48:18;;;;;;;2.88;0.50;;;;;;;;;;5323081;28;20039;-70
2022/06/29 07:50:49;;;;;;;2.78;0.40;;;;;;;;;;5324009;28;20039;-70
2022/06/29 07:53:20;;;;;;;3.08;1.45;;;;;;;;;;5322570;28;20043;-69
2022/06/29 07:55:52;;;;;;;2.47;0.65;;;;;;;;;;5324066;28;20029;-69
2022/06/29 07:58:23;;;;;;;3.38;0.63;;;;;;;;;;5323511;28;20099;-69
2022/06/29 08:00:54;;;;;;;3.70;0.60;;;;;;;;;;5323423;28;20102;-71
2022/06/29 08:03:25;;;;;;;3.95;0.50;;;;;;;;;;5323200;28;20007;-69
2022/06/29 08:05:57;;;;;;;2.93;0.50;;;;;;;;;;5323879;28;20024;-70
2022/06/29 08:08:29;;;;;;;3.15;0.35;;;;;;;;;;5322799;28;20302;-70
2022/06/29 08:11:00;;;;;;;4.63;0.40;;;;;;;;;;5323354;28;20053;-69
2022/06/29 08:13:31;;;;;;;2.63;0.40;;;;;;;;;;5323660;28;20518;-69
2022/06/29 08:16:02;;;;;;;2.53;0.40;;;;;;;;;;5322865;28;20302;-71
2022/06/29 08:18:34;;;;;;;129.98;14.95;;;;;;;;;;5323337;28;20096;-70
2022/06/29 08:21:05;;;;;;;55.25;5.47;;;;;;;;;;5322730;28;20055;-70
2022/06/29 08:23:36;;;;;;;4.27;0.40;;;;;;;;;;5323564;28;20019;-69
2022/06/29 08:26:08;;;;;;;15.23;1.40;;;;;;;;;;5323479;28;20297;-69
2022/06/29 08:28:39;;;;;;;4.43;0.40;;;;;;;;;;5322800;28;20368;-70
2022/06/29 08:31:10;;;;;;;3.23;0.40;;;;;;;;;;5327435;28;20039;-69
2022/06/29 08:33:42;;;;;;;1.03;0.30;;;;;;;;;;5327456;28;20289;-70
2022/06/29 08:36:13;;;;;;;2.47;0.30;;;;;;;;;;5326820;28;20348;-69
2022/06/29 08:38:45;;;;;;;5.78;2.00;;;;;;;;;;5327317;28;20098;-69
2022/06/29 08:41:16;;;;;;;1.43;0.37;;;;;;;;;;5327165;28;20016;-69
2022/06/29 08:43:48;;;;;;;1.15;0.40;;;;;;;;;;5326699;28;20098;-69
2022/06/29 08:46:19;;;;;;;4.15;1.95;;;;;;;;;;5327040;28;20016;-69
2022/06/29 08:48:51;;;;;;;3.78;0.40;;;;;;;;;;5327655;28;20043;-70
2022/06/29 08:51:24;;;;;;;5.20;0.30;;;;;;;;;;5326424;28;20031;-70
2022/06/29 08:53:55;;;;;;;2.67;0.40;;;;;;;;;;5327365;28;20510;-70
2022/06/29 08:56:27;;;;;;;0.95;0.30;;;;;;;;;;5326143;28;20110;-70
2022/06/29 08:59:00;;;;;;;4.25;0.30;;;;;;;;;;5327423;28;20016;-69
2022/06/29 09:01:32;;;;;;;4.25;0.50;;;;;;;;;;5326941;28;20027;-70
2022/06/29 09:04:03;;;;;;;3.47;0.40;;;;;;;;;;5326105;28;20019;-71
2022/06/29 09:06:34;;;;;;;3.08;0.40;;;;;;;;;;5326948;28;20039;-72
2022/06/29 09:09:05;;;;;;;17.17;0.60;;;;;;;;;;5326705;28;20062;-71
2022/06/29 09:11:39;;;;;;;5.13;0.40;;;;;;;;;;5326122;28;20030;-71
2022/06/29 09:14:18;;;;;;;1.38;0.25;;;;;;;;;;5326832;28;20835;-70
2022/06/29 09:16:50;;;;;;;4.15;0.40;;;;;;;;;;5326789;28;20015;-71
2022/06/29 09:19:22;;;;;;;2.78;1.23;;;;;;;;;;5325421;28;20079;-71
2022/06/29 09:21:54;;;;;;;14.65;11.45;;;;;;;;;;5327055;28;20016;-70
2022/06/29 09:24:26;;;;;;;6.57;1.00;;;;;;;;;;5325251;28;20024;-70
2022/06/29 09:27:05;;;;;;;3.58;0.30;;;;;;;;;;5326773;28;20019;-69
2022/06/29 09:29:39;;;;;;;1.80;0.22;;;;;;;;;;5326607;28;20061;-70
2022/06/29 09:32:11;;;;;;;3.42;0.20;;;;;;;;;;5325686;28;20023;-70
2022/06/29 09:34:43;;;;;;;0.95;0.20;;;;;;;;;;5326339;28;20099;-70
2022/06/29 09:37:15;;;;;;;7.20;0.45;;;;;;;;;;5326272;28;20096;-70
2022/06/29 09:39:50;;;;;;;1.70;0.28;;;;;;;;;;5325272;28;20012;-69
2022/06/29 09:42:24;;;;;;;1.05;0.22;;;;;;;;;;5325238;27;20360;-71
2022/06/29 09:44:55;;;;;;;3.00;0.20;;;;;;;;;;5326303;28;20015;-70
2022/06/29 09:47:27;;;;;;;1.20;0.20;;;;;;;;;;5324868;28;20075;-71
2022/06/29 09:50:00;;;;;;;1.45;0.20;;;;;;;;;;5326103;28;20042;-71
2022/06/29 09:52:32;;;;;;;4.50;0.30;;;;;;;;;;5325046;28;20073;-71
2022/06/29 09:55:04;;;;;;;2.60;0.20;;;;;;;;;;5325945;27;20011;-71
2022/06/29 09:57:36;;;;;;;2.80;0.28;;;;;;;;;;5325483;28;20373;-71
2022/06/29 10:02:59;;;;;;;7.05;0.30;;;;;;;;;;5326245;28;20019;-71
2022/06/29 10:05:54;;;;;;;1.73;0.20;;;;;;;;;;5325906;28;20019;-71
2022/06/29 10:08:22;;;;;;;1.02;0.20;;;;;;;;;;5324448;28;20061;-70
2022/06/29 10:10:57;;;;;;;2.30;0.30;;;;;;;;;;5325771;27;20059;-70
2022/06/29 10:13:40;;;;;;;3.40;0.30;;;;;;;;;;5325303;28;20019;-70
2022/06/29 10:16:22;;;;;;;0.77;0.20;;;;;;;;;;5325566;28;20047;-71
2022/06/29 10:19:12;;;;;;;3.08;0.20;;;;;;;;;;5325557;28;20390;-71
2022/06/29 10:21:43;;;;;;;1.25;0.20;;;;;;;;;;5324629;28;20020;-71
2022/06/29 10:24:18;;;;;;;2.47;0.30;;;;;;;;;;5325374;28;20019;-70
2022/06/29 10:26:49;;;;;;;3.63;0.20;;;;;;;;;;5325275;28;20068;-70
2022/06/29 10:29:20;;;;;;;2.83;0.20;;;;;;;;;;5324026;28;20195;-70
2022/06/29 10:31:52;;;;;;;1.73;0.20;;;;;;;;;;5325204;28;20161;-70
2022/06/29 10:34:32;;;;;;;0.83;0.17;;;;;;;;;;5324851;28;20011;-70
2022/06/29 10:37:14;;;;;;;1.70;0.20;;;;;;;;;;5324147;28;20423;-70
2022/06/29 10:39:45;;;;;;;2.55;0.22;;;;;;;;;;5324868;28;20032;-70
2022/06/29 10:45:18;;;;;;;4.72;0.20;;;;;;;;;;5324623;28;20257;-70
2022/06/29 10:47:55;;;;;;;1.38;0.20;;;;;;;;;;5325052;28;20020;-70
2022/06/29 10:50:30;;;;;;;1.30;0.30;;;;;;;;;;5323463;28;20054;-70
2022/06/29 10:53:17;;;;;;;0.77;0.20;;;;;;;;;;5324425;28;20028;-69
2022/06/29 10:55:55;;;;;;;2.92;0.38;;;;;;;;;;5324264;28;20072;-70
2022/06/29 10:58:26;;;;;;;1.33;0.30;;;;;;;;;;5324341;28;20403;-70
2022/06/29 11:00:58;;;;;;;2.40;0.30;;;;;;;;;;5324661;28;20106;-70
2022/06/29 11:03:29;;;;;;;1.58;0.25;;;;;;;;;;5323246;28;20035;-70
2022/06/29 11:17:40;;;;;;;1.50;0.30;;;;;;;;;;5323545;28;20479;-70
2022/06/29 11:20:18;;;;;;;4.43;0.30;;;;;;;;;;5324021;28;20521;-71
2022/06/29 11:22:51;;;;;;;6.10;0.30;;;;;;;;;;5324171;28;20131;-71
2022/06/29 11:25:22;;;;;;;2.33;0.35;;;;;;;;;;5322993;28;20106;-71
2022/06/29 11:27:53;;;;;;;2.03;0.30;;;;;;;;;;5324360;28;20024;-71
2022/06/29 11:30:24;;;;;;;4.97;0.40;;;;;;;;;;5323532;28;20053;-71
2022/06/29 11:32:56;;;;;;;7.67;0.40;;;;;;;;;;5323698;28;20330;-70
2022/06/29 11:35:27;;;;;;;4.82;0.57;;;;;;;;;;5323797;28;20019;-70
2022/06/29 11:38:01;;;;;;;0.97;0.20;;;;;;;;;;5323819;28;20062;-70
2022/06/29 11:40:41;;;;;;;2.17;0.30;;;;;;;;;;5323815;28;20269;-74
2022/06/29 11:43:16;;;;;;;2.03;0.40;;;;;;;;;;5324056;28;20513;-70
2022/06/29 11:45:51;;;;;;;4.28;0.40;;;;;;;;;;5323319;28;20015;-70
2022/06/29 11:48:23;;;;;;;1.08;0.30;;;;;;;;;;5323634;28;20035;-71
2022/06/29 11:50:58;;;;;;;2.05;0.30;;;;;;;;;;5323961;28;20031;-71
2022/06/29 11:53:47;;;;;;;3.22;0.38;;;;;;;;;;5322507;28;20077;-72
2022/06/29 11:56:21;;;;;;;1.83;0.30;;;;;;;;;;5323301;28;20494;-70
2022/06/29 11:58:56;;;;;;;4.30;0.30;;;;;;;;;;5324049;28;20420;-70
2022/06/29 12:01:27;;;;;;;2.17;0.40;;;;;;;;;;5322478;28;20028;-73
2022/06/29 12:04:02;;;;;;;11.38;0.93;;;;;;;;;;5324827;28;20408;-70
2022/06/29 12:06:37;;;;;;;1.98;0.40;;;;;;;;;;5327589;28;20027;-70
2022/06/29 12:09:08;;;;;;;3.28;0.30;;;;;;;;;;5327995;28;20040;-72
2022/06/29 12:11:40;;;;;;;4.68;0.32;;;;;;;;;;5327756;28;20051;-73
2022/06/29 12:14:11;;;;;;;3.50;0.40;;;;;;;;;;5327122;28;20023;-70
2022/06/29 12:16:42;;;;;;;3.38;0.38;;;;;;;;;;5323699;28;20046;-70
2022/06/29 12:19:13;;;;;;;4.40;0.30;;;;;;;;;;5327145;28;20101;-71
2022/06/29 12:21:44;;;;;;;1.67;0.60;;;;;;;;;;5326891;28;20375;-70
2022/06/29 12:24:16;;;;;;;1.63;0.30;;;;;;;;;;5327246;28;20023;-71
2022/06/29 12:26:48;;;;;;;4.32;0.30;;;;;;;;;;5327746;28;20269;-70
2022/06/29 12:29:19;;;;;;;4.57;0.40;;;;;;;;;;5326590;28;20019;-71
2022/06/29 12:31:50;;;;;;;2.50;0.30;;;;;;;;;;5327832;28;20362;-71
2022/06/29 12:34:21;;;;;;;3.97;0.30;;;;;;;;;;5326543;28;20073;-71
2022/06/29 12:36:53;;;;;;;4.22;0.40;;;;;;;;;;5327607;28;20374;-70
2022/06/29 12:39:24;;;;;;;2.60;0.30;;;;;;;;;;5327202;28;20015;-71
2022/06/29 12:41:55;;;;;;;3.87;0.30;;;;;;;;;;5326981;28;20015;-71
2022/06/29 12:44:26;;;;;;;3.08;0.30;;;;;;;;;;5327003;28;20015;-71
2022/06/29 12:46:57;;;;;;;3.47;0.30;;;;;;;;;;5327567;28;20030;-70
2022/06/29 12:49:29;;;;;;;3.33;0.30;;;;;;;;;;5326481;28;20043;-70
2022/06/29 12:52:00;;;;;;;5.67;0.50;;;;;;;;;;5326907;28;20028;-70
2022/06/29 12:54:31;;;;;;;3.00;0.30;;;;;;;;;;5327136;28;20625;-71
2022/06/29 12:57:03;;;;;;;2.80;0.40;;;;;;;;;;5326285;28;20106;-70
2022/06/29 12:59:34;;;;;;;1.50;0.30;;;;;;;;;;5326786;28;20012;-70
2022/06/29 13:02:06;;;;;;;5.57;0.30;;;;;;;;;;5326840;28;20078;-70
2022/06/29 13:04:37;;;;;;;1.30;0.20;;;;;;;;;;5326311;28;20335;-71
2022/06/29 13:07:09;;;;;;;3.63;0.40;;;;;;;;;;5326572;28;20020;-69
2022/06/29 13:09:40;;;;;;;2.07;0.30;;;;;;;;;;5325725;28;20725;-70
2022/06/29 13:12:11;;;;;;;4.53;0.30;;;;;;;;;;5326543;28;20269;-70
2022/06/29 13:14:42;;;;;;;3.40;0.30;;;;;;;;;;5326579;28;20015;-69
2022/06/29 13:17:14;;;;;;;2.57;0.30;;;;;;;;;;5324535;28;20020;-69
2022/06/29 13:19:45;;;;;;;2.78;0.40;;;;;;;;;;5326236;27;20039;-71
2022/06/29 13:22:16;;;;;;;6.63;0.30;;;;;;;;;;5326197;28;20038;-72
2022/06/29 13:24:47;;;;;;;2.78;0.30;;;;;;;;;;5325518;28;20745;-70
2022/06/29 13:27:19;;;;;;;2.15;0.30;;;;;;;;;;5325981;28;20471;-72
2022/06/29 13:29:50;;;;;;;1.60;0.30;;;;;;;;;;5326563;28;20455;-71
2022/06/29 13:32:21;;;;;;;4.22;0.43;;;;;;;;;;5325116;28;20023;-71
2022/06/29 13:34:52;;;;;;;3.30;0.30;;;;;;;;;;5326422;28;20028;-71
2022/06/29 13:37:24;;;;;;;3.00;0.30;;;;;;;;;;5325690;28;20110;-71
2022/06/29 13:39:55;;;;;;;1.20;0.20;;;;;;;;;;5325698;28;20027;-71
2022/06/29 13:42:26;;;;;;;3.37;0.47;;;;;;;;;;5325873;28;20274;-72
2022/06/29 13:44:57;;;;;;;3.90;0.40;;;;;;;;;;5325569;28;20032;-71
2022/06/29 13:47:28;;;;;;;9.67;0.40;;;;;;;;;;5325691;28;20294;-71
2022/06/29 13:50:00;;;;;;;2.17;0.20;;;;;;;;;;5325741;28;20294;-71
2022/06/29 13:52:31;;;;;;;1.43;0.30;;;;;;;;;;5325273;28;20258;-71
2022/06/29 13:55:02;;;;;;;2.25;0.30;;;;;;;;;;5325723;28;20016;-71
2022/06/29 13:57:33;;;;;;;2.50;0.30;;;;;;;;;;5325779;28;20485;-71
2022/06/29 14:00:05;;;;;;;1.90;0.30;;;;;;;;;;5324707;28;20031;-71
2022/06/29 14:02:36;;;;;;;7.95;0.40;;;;;;;;;;5325453;27;20023;-72
2022/06/29 14:05:08;;;;;;;4.05;0.30;;;;;;;;;;5325562;28;20450;-71
2022/06/29 14:07:39;;;;;;;3.50;0.30;;;;;;;;;;5324463;28;20489;-71
2022/06/29 14:10:10;;;;;;;4.07;0.40;;;;;;;;;;5325119;28;20364;-71
2022/06/29 14:12:44;;;;;;;4.88;0.50;;;;;;;;;;5324926;28;20266;-71
2022/06/29 14:15:15;;;;;;;3.92;0.35;;;;;;;;;;5325500;28;20015;-72
2022/06/29 14:17:46;;;;;;;2.80;0.40;;;;;;;;;;5325362;28;20012;-71
2022/06/29 14:20:18;;;;;;;2.60;0.30;;;;;;;;;;5324692;28;20027;-71
2022/06/29 14:22:49;;;;;;;1.23;0.30;;;;;;;;;;5325424;28;20054;-72
2022/06/29 14:25:21;;;;;;;2.22;0.52;;;;;;;;;;5325361;28;20011;-72
2022/06/29 14:27:53;;;;;;;3.03;0.32;;;;;;;;;;5324499;28;20083;-72
2022/06/29 14:30:24;;;;;;;2.80;0.30;;;;;;;;;;5324518;28;20024;-71
2022/06/29 14:32:56;;;;;;;8.32;0.30;;;;;;;;;;5325110;28;20543;-71
2022/06/29 14:35:27;;;;;;;3.40;0.30;;;;;;;;;;5323456;28;20114;-71
2022/06/29 14:38:01;;;;;;;1.70;0.28;;;;;;;;;;5325097;28;20396;-73
2022/06/29 14:40:32;;;;;;;2.47;0.30;;;;;;;;;;5324917;28;20055;-71
2022/06/29 14:43:04;;;;;;;3.75;0.30;;;;;;;;;;5324097;28;20047;-71
2022/06/29 14:45:35;;;;;;;1.73;0.30;;;;;;;;;;5324783;28;20026;-71
2022/06/29 14:48:07;;;;;;;3.08;0.28;;;;;;;;;;5323838;28;20019;-70
2022/06/29 14:50:39;;;;;;;6.15;0.40;;;;;;;;;;5324727;28;20028;-70
2022/06/29 14:53:10;;;;;;;4.53;0.30;;;;;;;;;;5324492;28;20020;-70
2022/06/29 14:55:41;;;;;;;2.10;0.37;;;;;;;;;;5323713;28;20485;-70
2022/06/29 14:58:12;;;;;;;3.33;0.30;;;;;;;;;;5324228;28;20293;-70
2022/06/29 15:00:44;;;;;;;4.07;0.38;;;;;;;;;;5324404;28;20023;-70
2022/06/29 15:03:16;;;;;;;1.42;0.50;;;;;;;;;;5323768;28;20024;-69
2022/06/29 15:05:47;;;;;;;1.67;0.45;;;;;;;;;;5324499;28;20588;-69
2022/06/29 15:08:19;;;;;;;1.20;0.22;;;;;;;;;;5324132;28;20098;-70
2022/06/29 15:10:50;;;;;;;2.70;0.30;;;;;;;;;;5323738;28;20031;-69
2022/06/29 15:13:21;;;;;;;2.33;0.30;;;;;;;;;;5324116;28;20117;-70
2022/06/29 15:15:52;;;;;;;2.10;0.40;;;;;;;;;;5324601;28;20020;-71
2022/06/29 15:18:23;;;;;;;1.27;0.23;;;;;;;;;;5322759;28;20063;-70
2022/06/29 15:20:54;;;;;;;2.77;0.30;;;;;;;;;;5324503;28;20034;-71
2022/06/29 15:23:26;;;;;;;1.73;0.40;;;;;;;;;;5322713;28;20026;-70
2022/06/29 15:25:57;;;;;;;0.90;0.20;;;;;;;;;;5324638;28;20148;-69
2022/06/29 15:28:28;;;;;;;3.10;0.32;;;;;;;;;;5323786;28;20012;-70
2022/06/29 15:30:59;;;;;;;3.70;0.50;;;;;;;;;;5323230;28;20024;-70
2022/06/29 15:39:10;;;;;;;2.28;0.30;;;;;;;;;;5322565;28;20055;-70
2022/06/29 15:41:41;;;;;;;2.92;0.28;;;;;;;;;;5323893;28;20043;-71